Flight Track Log - Related Links

Times and Time Zones

All times are in EDT time to prevent confusion due to time zone crossing. See the DAL1117 flight status page for this flight to view local times or setup timezone preferences in your user account.

Time Position Orientation Groundspeed Altitude Reporting Facility
EDT Latitude Longitude Course Direction KTS MPH feet Rate Location/Type
Thu 02:17:17 PM 44.8333 -93.2167 129° Southeast 191 220 2,200  Level Minneapolis TRACON
Thu 02:17:49 PM 44.8117 -93.2281 200° South 220 253 2,700 2,653 Climbing Minneapolis Center
Thu 02:18:52 PM 44.7294 -93.2489 190° South 259 298 6,400 3,216 Climbing Minneapolis Center
Thu 02:19:00 PM 44.6397 -92.8556 120° Southeast  Level Estimated
Thu 02:19:54 PM 44.6564 -93.2661 190° South 272 313 9,400  Level Minneapolis Center
Thu 02:20:00 PM 44.5587 -92.7342 125° Southeast  Level Estimated
Thu 02:20:56 PM 44.5897 -93.2081 148° Southeast 313 360 11,800  Level Minneapolis Center
Thu 02:21:00 PM 44.4775 -92.6132 121° Southeast  Level Estimated
Thu 02:21:59 PM 44.5400 -93.0511 114° Southeast 378 435 13,300  Level Minneapolis Center
Thu 02:22:00 PM 44.4037 -92.4835 129° Southeast  Level FlightAware Approximate
Thu 02:23:01 PM 44.4931 -92.9064 114° Southeast 409 471 16,100  Level Minneapolis Center
Thu 02:24:03 PM 44.4497 -92.7753 115° Southeast 374 430 19,800 2,081 Climbing Minneapolis Center
Thu 02:25:05 PM 44.4019 -92.6342 115° Southeast 392 451 20,400 1,210 Climbing Minneapolis Center
Thu 02:26:07 PM 44.3506 -92.4811 115° Southeast 424 488 22,300 2,226 Climbing Minneapolis Center
Thu 02:27:09 PM 44.2800 -92.3064 119° Southeast 431 496 25,000 2,468 Climbing Minneapolis Center
Thu 02:28:11 PM 44.2200 -92.1700 122° Southeast 417 480 27,400 1,645 Climbing Minneapolis Center
Thu 02:29:13 PM 44.1628 -92.0361 121° Southeast 406 467 28,400 919 Climbing Minneapolis Center
Thu 02:30:15 PM 44.1011 -91.8981 122° Southeast 415 478 29,300 968 Climbing Minneapolis Center
Thu 02:31:17 PM 44.0383 -91.7556 121° Southeast 427 491 30,400 823 Climbing Minneapolis Center
Thu 02:32:19 PM 43.9700 -91.6000 121° Southeast 435 501 31,000 288 Climbing Minneapolis Center
Thu 02:33:22 PM 43.9044 -91.4589 123° Southeast 438 504 31,000  Level Minneapolis Center
Thu 02:34:24 PM 43.8244 -91.3431 134° Southeast 424 488 31,000  Level Minneapolis Center
Thu 02:35:26 PM 43.7422 -91.2306 135° Southeast 419 482 31,000  Level Minneapolis Center
Thu 02:36:28 PM 43.6456 -91.0925 134° Southeast 419 482 31,000  Level Minneapolis Center
Thu 02:37:09 PM 43.5961 -91.0275 136° Southeast 421 484 31,000  Level Chicago Center
Thu 02:38:11 PM 43.5136 -90.9114 134° Southeast 424 488 31,000  Level Chicago Center
Thu 02:39:13 PM 43.4306 -90.7981 135° Southeast 423 487 31,000  Level Chicago Center
Thu 02:40:15 PM 43.3294 -90.6592 135° Southeast 427 491 31,000  Level Chicago Center
Thu 02:41:17 PM 43.2464 -90.5431 134° Southeast 428 493 31,000  Level Chicago Center
Thu 02:42:19 PM 43.1614 -90.4283 135° Southeast 430 495 31,000  Level Chicago Center
Thu 02:43:21 PM 43.0772 -90.3147 135° Southeast 429 494 31,000  Level Chicago Center
Thu 02:44:23 PM 42.9903 -90.1978 135° Southeast 430 495 31,000  Level Chicago Center
Thu 02:45:26 PM 42.8892 -90.0611 135° Southeast 434 499 31,000  Level Chicago Center
Thu 02:46:28 PM 42.8025 -89.9469 136° Southeast 435 501 31,000  Level Chicago Center
Thu 02:47:30 PM 42.7147 -89.8292 135° Southeast 437 503 31,000  Level Chicago Center
Thu 02:48:32 PM 42.6258 -89.7133 136° Southeast 444 511 31,000  Level Chicago Center
Thu 02:49:34 PM 42.5386 -89.5975 136° Southeast 442 509 31,000  Level Chicago Center
Thu 02:50:36 PM 42.4319 -89.4597 136° Southeast 444 511 31,000  Level Chicago Center
Thu 02:51:38 PM 42.3442 -89.3447 136° Southeast 443 510 31,000  Level Chicago Center
Thu 02:52:40 PM 42.2569 -89.2306 136° Southeast 440 506 31,000  Level Chicago Center
Thu 02:53:42 PM 42.1694 -89.1194 137° Southeast 437 503 31,000  Level Chicago Center
Thu 02:54:44 PM 42.0819 -89.0039 136° Southeast 440 506 31,000  Level Chicago Center
Thu 02:55:47 PM 41.9894 -88.8856 136° Southeast 441 507 31,000  Level Chicago Center
Thu 02:56:49 PM 41.9017 -88.7703 136° Southeast 444 511 31,000  Level Chicago Center
Thu 02:57:51 PM 41.7961 -88.6369 137° Southeast 439 505 31,000  Level Chicago Center
Thu 02:58:53 PM 41.7083 -88.5244 136° Southeast 440 506 31,000 -484 Level Chicago Center
Thu 02:59:55 PM 41.6211 -88.4122 136° Southeast 439 505 30,000 -968 Descending Chicago Center
Thu 03:00:57 PM 41.5303 -88.3056 139° Southeast 439 505 29,000 -484 Descending Chicago Center
Thu 03:01:59 PM 41.4108 -88.2106 149° Southeast 427 491 29,000  Level Chicago Center
Thu 03:03:01 PM 41.3139 -88.1342 149° Southeast 421 484 29,000  Level Chicago Center
Thu 03:04:03 PM 41.2161 -88.0553 149° Southeast 419 482 29,000  Level Chicago Center
Thu 03:05:05 PM 41.1153 -87.9747 149° Southeast 425 489 29,000  Level Chicago Center
Thu 03:06:08 PM 40.9933 -87.8803 150° Southeast 427 491 29,000 -672 Level Chicago Center
Thu 03:07:10 PM 40.8878 -87.8392 164° South 398 458 27,600 -1,935 Descending Chicago Center
Thu 03:08:12 PM 40.7783 -87.8025 166° South 401 461 25,000 -1,742 Descending Chicago Center
Thu 03:09:14 PM 40.6611 -87.7681 167° South 422 486 24,000 -968 Descending Chicago Center
Thu 03:10:16 PM 40.5425 -87.7375 169° South 433 498 23,000 -968 Descending Chicago Center
Thu 03:11:18 PM 40.4106 -87.6556 155° Southeast 451 519 22,000 -919 Descending Chicago Center
Thu 03:12:20 PM 40.3547 -87.4936 114° Southeast 477 549 21,100 -1,355 Descending Chicago Center
Thu 03:13:22 PM 40.3033 -87.3300 112° Southeast 477 549 19,200 -2,468 Descending Chicago Center
Thu 03:14:24 PM 40.2578 -87.1767 111° Southeast 458 527 16,000 -2,758 Descending Chicago Center
Thu 03:15:26 PM 40.2122 -87.0306 112° Southeast 439 505 13,500 -1,440 Descending Chicago Center
Thu 03:16:29 PM 40.1672 -86.8889 113° Southeast 425 489 13,000 -259 Descending Chicago Center
Thu 03:17:22 PM 40.0978 -86.7803 130° Southeast 389 448 13,000 -678 Level Indianapolis Center
Thu 03:18:24 PM 40.0292 -86.6939 136° Southeast 357 411 11,700 -1,210 Descending Indianapolis Center
Thu 03:19:26 PM 39.9683 -86.6172 136° Southeast 320 368 10,500 -1,392 Descending Indianapolis Center
Thu 03:20:29 PM 39.9114 -86.5431 135° Southeast 299 344 8,800 -1,645 Descending Indianapolis Center
Thu 03:21:30 PM 39.8539 -86.4700 136° Southeast 292 336 7,100 -878 Descending Indianapolis Center
Thu 03:22:32 PM 39.8008 -86.3764 126° Southeast 278 320 7,000 -629 Descending Indianapolis Center
Thu 03:23:34 PM 39.8461 -86.2833 58° Northeast 301 346 5,800 -1,258 Descending Indianapolis Center
Thu 03:24:36 PM 39.8942 -86.1936 55° Northeast 300 345 4,400 -774 Descending Indianapolis Center
Thu 03:25:38 PM 39.8567 -86.1553 142° Southeast 226 260 4,200 -823 Descending Indianapolis Center
Thu 03:26:40 PM 39.8147 -86.1678 193° South 179 206 2,700 -726 Descending Indianapolis Center
Thu 03:27:42 PM 39.7878 -86.1925 215° Southwest 141 162 2,700 -336 Level Indianapolis Center
Thu 03:28:45 PM 39.7625 -86.2247 224° Southwest 130 150 2,000 -720 Descending Indianapolis Center
Thu 03:29:47 PM 39.7353 -86.2589 224° Southwest 130 150 1,200 -629 Descending Indianapolis Center
Thu 03:30:49 PM 39.7011 -86.3025 224° Southwest 135 155 700 -484 Descending Indianapolis Center

Login

Don't have an account? Register now (free) for customized features, flight alerts, and more!